Airfield :
LOGIN :

Register | Disclaimer

   EN    FR    IT 

 










Legend :    VFR   Marginal VFR   IFR   Intensive IFR   Very Intensive IFR
Visi :
Ceiling :
>= 8 km
>= 3000ft
5 to 8 km
1000 to 3000 ft
1500m to 5 km
500 to 1000 ft
800 to 1500m
200 to 500 ft
< 800m
< 200 ft
Symbols :   Thunderstorms  Fog  Heavy snow  Heavy precipitations  Wind > 20 kt
SIGMETs :     Misc.  Thunderstorms  Icing  Turbulence  Mountain Waves  Volcanic Ashes






- Airport Elevation : 242 ft
- IATA code : DUB


EIDW - Dublin

CURRENT METAR :
  • 060700Z 13006KT 090V170 9999 FEW006 SCT200 15/14 Q1013 NOSIG

EXPIRED METARs :
  • 060630Z 13007KT 080V160 9999 FEW004 SCT150 15/14 Q1013 NOSIG
  • 060600Z 14006KT 110V180 9999 FEW002 BKN004 13/13 Q1013 BECMG BKN010
  • 060530Z 12006KT 9999 FEW004 10/10 Q1013 NOSIG
  • 060500Z 11003KT 9999 FEW013 09/09 Q1013 NOSIG
  • 060430Z 15002KT 9999 FEW013 09/09 Q1012 NOSIG

TAF COR TAF EIDW
Valid from the 06 at 06:00 until the 07 at 06:00 UTC


060544Z 0606/0706 VRB03KT 9999 BKN004
BECMG 0606/0607 12006KT FEW013 SCT040
BECMG 0608/0610 15010KT
TEMPO 0612/0614 18008KT
BECMG 0614/0616 21008KT
BECMG 0620/0622 18005KT
TEMPO 0700/0704 VRB03KT
PROB30
TEMPO 0702/0705 4000 BR
BECMG 0704/0706 15007KT



MET'MAP, your aeronautical weather chart ! - Copyright ORBIFLY December 2007 - Disclaimer

ORBIFLY MET'MAP TEAM :

Programming & Development : Alexandra Zaïnal
Concept & original design : Baudouin d'Aumeries
Assistance for programming : Marc-Olivier Méhu
Technical & hardware support : Manuel Goepfert

Contact : metmap@orbifly.com




SOURCES & CREDITS :

   NOAA